sensor_id;sensor_type;location;lat;lon;timestamp;pressure;altitude;pressure_sealevel;temperature;humidity
29371;BME280;16357;52.188;7.838;2023-03-25T00:02:25;99465.19;;;11.23;63.27
29371;BME280;16357;52.188;7.838;2023-03-25T00:04:53;99460.91;;;11.29;62.79
29371;BME280;16357;52.188;7.838;2023-03-25T00:07:20;99465.69;;;11.33;63.07
29371;BME280;16357;52.188;7.838;2023-03-25T00:09:48;99463.28;;;11.38;63.13
29371;BME280;16357;52.188;7.838;2023-03-25T00:12:15;99472.59;;;11.42;63.28
29371;BME280;16357;52.188;7.838;2023-03-25T00:14:44;99471.19;;;11.47;63.02
29371;BME280;16357;52.188;7.838;2023-03-25T00:17:21;99471.84;;;11.49;63.21
29371;BME280;16357;52.188;7.838;2023-03-25T00:19:47;99476.00;;;11.51;63.03
29371;BME280;16357;52.188;7.838;2023-03-25T00:22:17;99477.47;;;11.54;63.18
29371;BME280;16357;52.188;7.838;2023-03-25T00:24:43;99463.38;;;11.52;63.14
29371;BME280;16357;52.188;7.838;2023-03-25T00:27:09;99460.69;;;11.52;63.14
29371;BME280;16357;52.188;7.838;2023-03-25T00:29:36;99467.09;;;11.51;63.21
29371;BME280;16357;52.188;7.838;2023-03-25T00:32:02;99460.88;;;11.50;63.04
29371;BME280;16357;52.188;7.838;2023-03-25T00:34:29;99465.44;;;11.50;63.07
29371;BME280;16357;52.188;7.838;2023-03-25T00:36:55;99464.78;;;11.48;62.98
29371;BME280;16357;52.188;7.838;2023-03-25T00:39:21;99460.63;;;11.45;63.13
29371;BME280;16357;52.188;7.838;2023-03-25T00:41:48;99468.69;;;11.45;63.08
29371;BME280;16357;52.188;7.838;2023-03-25T00:44:14;99460.84;;;11.43;62.96
29371;BME280;16357;52.188;7.838;2023-03-25T00:46:42;99472.41;;;11.44;63.01
29371;BME280;16357;52.188;7.838;2023-03-25T00:49:08;99457.31;;;11.43;63.09
29371;BME280;16357;52.188;7.838;2023-03-25T00:51:35;99466.22;;;11.43;63.09
29371;BME280;16357;52.188;7.838;2023-03-25T00:54:18;99466.22;;;11.43;63.16
29371;BME280;16357;52.188;7.838;2023-03-25T00:56:48;99464.53;;;11.42;63.01
29371;BME280;16357;52.188;7.838;2023-03-25T00:59:15;99470.75;;;11.43;63.00
29371;BME280;16357;52.188;7.838;2023-03-25T01:01:41;99461.84;;;11.42;62.78
29371;BME280;16357;52.188;7.838;2023-03-25T01:04:08;99453.78;;;11.42;62.89
29371;BME280;16357;52.188;7.838;2023-03-25T01:06:39;99455.47;;;11.43;62.70
29371;BME280;16357;52.188;7.838;2023-03-25T01:09:18;99452.38;;;11.47;62.73
29371;BME280;16357;52.188;7.838;2023-03-25T01:11:48;99454.03;;;11.48;62.63
29371;BME280;16357;52.188;7.838;2023-03-25T01:14:18;99452.22;;;11.48;62.12
29371;BME280;16357;52.188;7.838;2023-03-25T01:16:45;99454.91;;;11.48;62.39
29371;BME280;16357;52.188;7.838;2023-03-25T01:19:12;99464.59;;;11.49;62.40
29371;BME280;16357;52.188;7.838;2023-03-25T01:21:39;99458.19;;;11.50;62.10
29371;BME280;16357;52.188;7.838;2023-03-25T01:24:07;99450.13;;;11.50;62.01
29371;BME280;16357;52.188;7.838;2023-03-25T01:26:33;99450.13;;;11.50;61.91
29371;BME280;16357;52.188;7.838;2023-03-25T01:29:01;99454.50;;;11.51;61.89
29371;BME280;16357;52.188;7.838;2023-03-25T01:31:27;99458.00;;;11.52;61.80
29371;BME280;16357;52.188;7.838;2023-03-25T01:33:56;99462.34;;;11.53;61.89
29371;BME280;16357;52.188;7.838;2023-03-25T01:36:24;99460.31;;;11.55;61.85
29371;BME280;16357;52.188;7.838;2023-03-25T01:38:51;99452.25;;;11.55;61.63
29371;BME280;16357;52.188;7.838;2023-03-25T01:41:17;99456.63;;;11.56;61.60
29371;BME280;16357;52.188;7.838;2023-03-25T01:44:07;99449.16;;;11.58;61.57
29371;BME280;16357;52.188;7.838;2023-03-25T01:46:36;99441.94;;;11.58;61.58
29371;BME280;16357;52.188;7.838;2023-03-25T01:49:05;99449.81;;;11.60;61.61
29371;BME280;16357;52.188;7.838;2023-03-25T01:51:35;99444.44;;;11.60;61.41
29371;BME280;16357;52.188;7.838;2023-03-25T01:54:04;99438.25;;;11.59;61.17
29371;BME280;16357;52.188;7.838;2023-03-25T01:56:34;99429.97;;;11.61;60.94
29371;BME280;16357;52.188;7.838;2023-03-25T01:59:04;99429.97;;;11.61;61.18
29371;BME280;16357;52.188;7.838;2023-03-25T02:01:31;99438.66;;;11.63;60.78
29371;BME280;16357;52.188;7.838;2023-03-25T02:03:59;99437.03;;;11.62;60.86
29371;BME280;16357;52.188;7.838;2023-03-25T02:06:53;99433.13;;;11.64;61.00
29371;BME280;16357;52.188;7.838;2023-03-25T02:09:21;99429.59;;;11.64;61.11
29371;BME280;16357;52.188;7.838;2023-03-25T02:11:49;99426.06;;;11.63;60.71
29371;BME280;16357;52.188;7.838;2023-03-25T02:14:22;99430.44;;;11.64;60.56
29371;BME280;16357;52.188;7.838;2023-03-25T02:16:53;99422.38;;;11.64;60.46
29371;BME280;16357;52.188;7.838;2023-03-25T02:30:35;99432.53;;;11.69;59.99
29371;BME280;16357;52.188;7.838;2023-03-25T02:42:25;99422.22;;;11.73;59.72
29371;BME280;16357;52.188;7.838;2023-03-25T02:45:01;99430.28;;;11.73;59.68
29371;BME280;16357;52.188;7.838;2023-03-25T02:47:33;99417.88;;;11.72;59.35
29371;BME280;16357;52.188;7.838;2023-03-25T02:50:05;99417.88;;;11.72;59.44
29371;BME280;16357;52.188;7.838;2023-03-25T02:52:54;99422.41;;;11.71;59.42
29371;BME280;16357;52.188;7.838;2023-03-25T02:55:23;99408.97;;;11.71;59.14
29371;BME280;16357;52.188;7.838;2023-03-25T02:57:54;99410.66;;;11.72;59.10
29371;BME280;16357;52.188;7.838;2023-03-25T03:00:25;99407.97;;;11.72;59.04
29371;BME280;16357;52.188;7.838;2023-03-25T03:02:59;99414.16;;;11.73;59.02
29371;BME280;16357;52.188;7.838;2023-03-25T03:05:29;99406.91;;;11.73;59.06
29371;BME280;16357;52.188;7.838;2023-03-25T03:08:25;99408.59;;;11.74;59.14
29371;BME280;16357;52.188;7.838;2023-03-25T03:13:59;99399.50;;;11.75;58.65
29371;BME280;16357;52.188;7.838;2023-03-25T03:19:51;99398.84;;;11.73;58.58
29371;BME280;16357;52.188;7.838;2023-03-25T03:22:39;99394.31;;;11.74;58.23
29371;BME280;16357;52.188;7.838;2023-03-25T03:25:30;99393.50;;;11.73;58.45
29371;BME280;16357;52.188;7.838;2023-03-25T03:34:03;99395.34;;;11.73;57.92
29371;BME280;16357;52.188;7.838;2023-03-25T03:36:33;99396.16;;;11.73;58.05
29371;BME280;16357;52.188;7.838;2023-03-25T03:39:08;99394.53;;;11.72;57.86
29371;BME280;16357;52.188;7.838;2023-03-25T03:41:41;99394.53;;;11.72;58.03
29371;BME280;16357;52.188;7.838;2023-03-25T03:44:12;99399.91;;;11.72;58.11
29371;BME280;16357;52.188;7.838;2023-03-25T03:46:57;99387.47;;;11.71;58.23
29371;BME280;16357;52.188;7.838;2023-03-25T03:49:32;99397.41;;;11.71;58.12
29371;BME280;16357;52.188;7.838;2023-03-25T03:55:06;99375.25;;;11.69;58.15
29371;BME280;16357;52.188;7.838;2023-03-25T03:57:40;99383.53;;;11.67;58.38
29371;BME280;16357;52.188;7.838;2023-03-25T04:00:12;99391.13;;;11.63;58.29
29371;BME280;16357;52.188;7.838;2023-03-25T04:02:45;99391.13;;;11.63;58.64
29371;BME280;16357;52.188;7.838;2023-03-25T04:05:16;99382.47;;;11.61;58.75
29371;BME280;16357;52.188;7.838;2023-03-25T04:08:03;99387.22;;;11.59;59.00
29371;BME280;16357;52.188;7.838;2023-03-25T04:10:49;99392.75;;;11.58;59.28
29371;BME280;16357;52.188;7.838;2023-03-25T04:13:19;99387.78;;;11.55;59.38
29371;BME280;16357;52.188;7.838;2023-03-25T04:15:47;99393.56;;;11.52;59.65
29371;BME280;16357;52.188;7.838;2023-03-25T04:18:14;99394.78;;;11.49;59.70
29371;BME280;16357;52.188;7.838;2023-03-25T04:20:40;99392.28;;;11.48;59.89
29371;BME280;16357;52.188;7.838;2023-03-25T04:23:11;99382.75;;;11.45;59.83
29371;BME280;16357;52.188;7.838;2023-03-25T04:25:42;99396.38;;;11.43;59.99
29371;BME280;16357;52.188;7.838;2023-03-25T04:28:09;99400.09;;;11.42;60.04
29371;BME280;16357;52.188;7.838;2023-03-25T04:30:39;99392.25;;;11.41;59.75
29371;BME280;16357;52.188;7.838;2023-03-25T04:33:06;99391.41;;;11.40;59.81
29371;BME280;16357;52.188;7.838;2023-03-25T04:35:32;99386.22;;;11.39;59.96
29371;BME280;16357;52.188;7.838;2023-03-25T04:37:59;99395.09;;;11.39;59.85
29371;BME280;16357;52.188;7.838;2023-03-25T04:40:26;99401.50;;;11.38;59.90
29371;BME280;16357;52.188;7.838;2023-03-25T04:42:53;99393.47;;;11.38;59.66
29371;BME280;16357;52.188;7.838;2023-03-25T04:45:22;99399.88;;;11.37;59.63
29371;BME280;16357;52.188;7.838;2023-03-25T04:47:51;99397.19;;;11.37;59.67
29371;BME280;16357;52.188;7.838;2023-03-25T04:52:51;99417.63;;;11.38;59.71
29371;BME280;16357;52.188;7.838;2023-03-25T04:55:19;99401.69;;;11.37;59.51
29371;BME280;16357;52.188;7.838;2023-03-25T04:57:48;99397.19;;;11.37;59.60
29371;BME280;16357;52.188;7.838;2023-03-25T05:00:17;99398.81;;;11.38;59.96
29371;BME280;16357;52.188;7.838;2023-03-25T05:02:45;99389.94;;;11.38;59.70
29371;BME280;16357;52.188;7.838;2023-03-25T05:05:16;99390.78;;;11.38;59.83
29371;BME280;16357;52.188;7.838;2023-03-25T05:07:47;99397.19;;;11.37;59.81
29371;BME280;16357;52.188;7.838;2023-03-25T05:10:19;99392.63;;;11.38;59.76
29371;BME280;16357;52.188;7.838;2023-03-25T05:12:46;99392.00;;;11.36;59.70
29371;BME280;16357;52.188;7.838;2023-03-25T05:15:14;99386.63;;;11.36;59.89
29371;BME280;16357;52.188;7.838;2023-03-25T05:17:43;99391.16;;;11.35;59.82
29371;BME280;16357;52.188;7.838;2023-03-25T05:20:10;99390.34;;;11.35;59.71
29371;BME280;16357;52.188;7.838;2023-03-25T05:22:38;99394.84;;;11.34;59.94
29371;BME280;16357;52.188;7.838;2023-03-25T05:25:08;99383.28;;;11.34;59.55
29371;BME280;16357;52.188;7.838;2023-03-25T05:27:35;99384.34;;;11.33;59.72
29371;BME280;16357;52.188;7.838;2023-03-25T05:30:02;99394.25;;;11.32;59.83
29371;BME280;16357;52.188;7.838;2023-03-25T05:32:29;99381.81;;;11.31;60.04
29371;BME280;16357;52.188;7.838;2023-03-25T05:34:59;99392.56;;;11.31;59.88
29371;BME280;16357;52.188;7.838;2023-03-25T05:37:26;99393.59;;;11.30;59.86
29371;BME280;16357;52.188;7.838;2023-03-25T05:39:52;99391.75;;;11.31;60.01
29371;BME280;16357;52.188;7.838;2023-03-25T05:42:19;99396.28;;;11.30;59.64
29371;BME280;16357;52.188;7.838;2023-03-25T05:44:49;99395.47;;;11.30;59.67
29371;BME280;16357;52.188;7.838;2023-03-25T05:47:23;99400.63;;;11.31;59.73
29371;BME280;16357;52.188;7.838;2023-03-25T05:49:51;99416.56;;;11.33;59.73
29371;BME280;16357;52.188;7.838;2023-03-25T05:52:19;99399.63;;;11.32;59.56
29371;BME280;16357;52.188;7.838;2023-03-25T05:54:49;99406.63;;;11.33;59.69
29371;BME280;16357;52.188;7.838;2023-03-25T05:57:16;99401.09;;;11.35;59.54
29371;BME280;16357;52.188;7.838;2023-03-25T05:59:43;99405.59;;;11.34;59.38
29371;BME280;16357;52.188;7.838;2023-03-25T06:02:13;99416.97;;;11.36;59.54
29371;BME280;16357;52.188;7.838;2023-03-25T06:04:40;99423.19;;;11.37;59.54
29371;BME280;16357;52.188;7.838;2023-03-25T06:07:09;99412.44;;;11.37;59.46
29371;BME280;16357;52.188;7.838;2023-03-25T06:09:40;99415.75;;;11.39;59.60
29371;BME280;16357;52.188;7.838;2023-03-25T06:12:16;99416.59;;;11.39;59.41
29371;BME280;16357;52.188;7.838;2023-03-25T06:14:43;99414.72;;;11.40;59.68
29371;BME280;16357;52.188;7.838;2023-03-25T06:17:21;99423.25;;;11.43;59.48
29371;BME280;16357;52.188;7.838;2023-03-25T06:19:48;99418.88;;;11.42;59.66
29371;BME280;16357;52.188;7.838;2023-03-25T06:22:15;99414.16;;;11.45;59.48
29371;BME280;16357;52.188;7.838;2023-03-25T06:24:42;99409.59;;;11.45;59.66
29371;BME280;16357;52.188;7.838;2023-03-25T06:27:14;99417.47;;;11.47;59.63
29371;BME280;16357;52.188;7.838;2023-03-25T06:29:42;99414.63;;;11.48;59.93
29371;BME280;16357;52.188;7.838;2023-03-25T06:32:11;99417.72;;;11.52;59.94
29371;BME280;16357;52.188;7.838;2023-03-25T06:34:38;99415.03;;;11.52;59.99
29371;BME280;16357;52.188;7.838;2023-03-25T06:37:08;99426.44;;;11.54;59.96
29371;BME280;16357;52.188;7.838;2023-03-25T06:39:35;99419.00;;;11.56;60.00
29371;BME280;16357;52.188;7.838;2023-03-25T06:42:05;99413.63;;;11.56;59.62
29371;BME280;16357;52.188;7.838;2023-03-25T06:44:32;99411.78;;;11.56;59.86
29371;BME280;16357;52.188;7.838;2023-03-25T06:46:59;99420.44;;;11.58;59.79
29371;BME280;16357;52.188;7.838;2023-03-25T06:49:27;99418.63;;;11.59;59.82
29371;BME280;16357;52.188;7.838;2023-03-25T06:51:54;99419.22;;;11.61;59.61
29371;BME280;16357;52.188;7.838;2023-03-25T06:54:20;99423.59;;;11.62;59.63
29371;BME280;16357;52.188;7.838;2023-03-25T06:56:47;99410.78;;;11.64;59.50
29371;BME280;16357;52.188;7.838;2023-03-25T06:59:14;99420.94;;;11.69;59.51
29371;BME280;16357;52.188;7.838;2023-03-25T07:01:41;99426.94;;;11.71;59.11
29371;BME280;16357;52.188;7.838;2023-03-25T07:04:08;99412.28;;;11.73;59.15
29371;BME280;16357;52.188;7.838;2023-03-25T07:06:34;99424.31;;;11.77;59.18
29371;BME280;16357;52.188;7.838;2023-03-25T07:09:01;99423.09;;;11.80;59.18
29371;BME280;16357;52.188;7.838;2023-03-25T07:11:28;99422.69;;;11.83;58.87
29371;BME280;16357;52.188;7.838;2023-03-25T07:13:56;99426.84;;;11.85;58.97
29371;BME280;16357;52.188;7.838;2023-03-25T07:16:22;99426.47;;;11.89;59.15
29371;BME280;16357;52.188;7.838;2023-03-25T07:18:49;99418.03;;;11.92;58.74
29371;BME280;16357;52.188;7.838;2023-03-25T07:21:17;99431.06;;;11.95;59.12
29371;BME280;16357;52.188;7.838;2023-03-25T07:23:44;99414.53;;;11.98;59.30
29371;BME280;16357;52.188;7.838;2023-03-25T07:26:10;99416.22;;;11.99;58.91
29371;BME280;16357;52.188;7.838;2023-03-25T07:28:39;99417.84;;;12.00;58.87
29371;BME280;16357;52.188;7.838;2023-03-25T07:31:11;99416.84;;;12.01;58.97
29371;BME280;16357;52.188;7.838;2023-03-25T07:33:38;99423.22;;;12.00;58.57
29371;BME280;16357;52.188;7.838;2023-03-25T07:36:06;99425.91;;;12.00;58.74
29371;BME280;16357;52.188;7.838;2023-03-25T07:38:33;99431.50;;;11.98;58.57
29371;BME280;16357;52.188;7.838;2023-03-25T07:41:22;99429.00;;;11.97;58.80
29371;BME280;16357;52.188;7.838;2023-03-25T07:43:48;99432.75;;;11.96;58.99
29371;BME280;16357;52.188;7.838;2023-03-25T07:46:15;99439.13;;;11.95;58.73
29371;BME280;16357;52.188;7.838;2023-03-25T07:48:41;99442.63;;;11.95;58.84
29371;BME280;16357;52.188;7.838;2023-03-25T07:51:08;99439.13;;;11.95;58.71
29371;BME280;16357;52.188;7.838;2023-03-25T07:53:35;99445.31;;;11.95;58.84
29371;BME280;16357;52.188;7.838;2023-03-25T07:56:05;99439.75;;;11.97;58.92
29371;BME280;16357;52.188;7.838;2023-03-25T07:58:32;99432.34;;;11.99;58.74
29371;BME280;16357;52.188;7.838;2023-03-25T08:00:58;99430.91;;;12.03;59.07
29371;BME280;16357;52.188;7.838;2023-03-25T08:03:24;99424.75;;;12.09;58.82
29371;BME280;16357;52.188;7.838;2023-03-25T08:05:53;99424.97;;;12.14;59.07
29371;BME280;16357;52.188;7.838;2023-03-25T08:08:19;99432.06;;;12.22;58.68
29371;BME280;16357;52.188;7.838;2023-03-25T08:10:46;99421.31;;;12.28;58.60
29371;BME280;16357;52.188;7.838;2023-03-25T08:13:13;99431.91;;;12.37;58.43
29371;BME280;16357;52.188;7.838;2023-03-25T08:15:40;99431.72;;;12.45;58.34
29371;BME280;16357;52.188;7.838;2023-03-25T08:18:06;99446.66;;;12.54;58.17
29371;BME280;16357;52.188;7.838;2023-03-25T08:20:33;99433.84;;;12.63;57.50
29371;BME280;16357;52.188;7.838;2023-03-25T08:23:01;99444.44;;;12.71;57.27
29371;BME280;16357;52.188;7.838;2023-03-25T08:25:29;99448.41;;;12.82;56.85
29371;BME280;16357;52.188;7.838;2023-03-25T08:27:56;99452.13;;;12.87;56.97
29371;BME280;16357;52.188;7.838;2023-03-25T08:30:22;99440.34;;;12.95;56.15
29371;BME280;16357;52.188;7.838;2023-03-25T08:32:49;99440.56;;;13.00;55.33
29371;BME280;16357;52.188;7.838;2023-03-25T08:35:23;99442.66;;;13.05;55.12
29371;BME280;16357;52.188;7.838;2023-03-25T08:37:50;99455.94;;;13.06;54.71
29371;BME280;16357;52.188;7.838;2023-03-25T08:40:17;99446.81;;;13.07;54.31
29371;BME280;16357;52.188;7.838;2023-03-25T08:42:44;99445.16;;;13.06;53.97
29371;BME280;16357;52.188;7.838;2023-03-25T08:45:11;99466.69;;;13.06;54.16
29371;BME280;16357;52.188;7.838;2023-03-25T08:47:38;99435.41;;;13.05;53.78
29371;BME280;16357;52.188;7.838;2023-03-25T08:50:05;99454.88;;;13.07;54.08
29371;BME280;16357;52.188;7.838;2023-03-25T08:52:32;99453.03;;;13.08;54.61
29371;BME280;16357;52.188;7.838;2023-03-25T08:54:58;99449.31;;;13.15;54.16
29371;BME280;16357;52.188;7.838;2023-03-25T08:57:24;99447.47;;;13.23;54.00
29371;BME280;16357;52.188;7.838;2023-03-25T08:59:51;99443.97;;;13.29;53.66
29371;BME280;16357;52.188;7.838;2023-03-25T09:02:17;99445.84;;;13.35;53.58
29371;BME280;16357;52.188;7.838;2023-03-25T09:04:46;99441.91;;;13.44;53.64
29371;BME280;16357;52.188;7.838;2023-03-25T09:07:13;99447.50;;;13.49;52.89
29371;BME280;16357;52.188;7.838;2023-03-25T09:09:40;99443.97;;;13.55;53.05
29371;BME280;16357;52.188;7.838;2023-03-25T09:12:07;99445.00;;;13.61;52.98
29371;BME280;16357;52.188;7.838;2023-03-25T09:14:34;99441.50;;;13.67;52.85
29371;BME280;16357;52.188;7.838;2023-03-25T09:17:00;99450.81;;;13.71;52.28
29371;BME280;16357;52.188;7.838;2023-03-25T09:22:04;99452.25;;;13.74;52.03
29371;BME280;16357;52.188;7.838;2023-03-25T09:24:31;99447.28;;;13.71;52.00
29371;BME280;16357;52.188;7.838;2023-03-25T09:27:00;99447.72;;;13.68;52.05
29371;BME280;16357;52.188;7.838;2023-03-25T09:29:27;99461.38;;;13.66;52.11
29371;BME280;16357;52.188;7.838;2023-03-25T09:31:54;99449.16;;;13.64;51.75
29371;BME280;16357;52.188;7.838;2023-03-25T09:34:23;99463.88;;;13.61;52.16
29371;BME280;16357;52.188;7.838;2023-03-25T09:36:50;99459.72;;;13.58;52.36
29371;BME280;16357;52.188;7.838;2023-03-25T09:39:16;99458.06;;;13.57;52.59
29371;BME280;16357;52.188;7.838;2023-03-25T09:44:48;99462.63;;;13.57;52.86
29371;BME280;16357;52.188;7.838;2023-03-25T09:47:19;99456.81;;;13.60;53.01
29371;BME280;16357;52.188;7.838;2023-03-25T09:49:49;99455.59;;;13.63;53.20
29371;BME280;16357;52.188;7.838;2023-03-25T09:55:25;99493.72;;;13.59;53.25
29371;BME280;16357;52.188;7.838;2023-03-25T09:57:58;99486.25;;;13.55;53.78
29371;BME280;16357;52.188;7.838;2023-03-25T10:00:26;99480.88;;;13.48;54.47
29371;BME280;16357;52.188;7.838;2023-03-25T10:03:06;99486.06;;;13.43;54.91
29371;BME280;16357;52.188;7.838;2023-03-25T10:06:22;99496.00;;;13.36;55.17
29371;BME280;16357;52.188;7.838;2023-03-25T10:09:00;99501.16;;;13.31;55.57
29371;BME280;16357;52.188;7.838;2023-03-25T10:14:19;99499.91;;;13.27;56.51
29371;BME280;16357;52.188;7.838;2023-03-25T10:22:15;99494.53;;;13.33;56.61
29371;BME280;16357;52.188;7.838;2023-03-25T10:24:49;99496.19;;;13.34;56.90
29371;BME280;16357;52.188;7.838;2023-03-25T10:30:17;99498.28;;;13.32;56.91
29371;BME280;16357;52.188;7.838;2023-03-25T10:32:52;99498.47;;;13.31;56.67
29371;BME280;16357;52.188;7.838;2023-03-25T10:35:30;99487.88;;;13.29;56.52
29371;BME280;16357;52.188;7.838;2023-03-25T10:38:02;99493.50;;;13.28;56.82
29371;BME280;16357;52.188;7.838;2023-03-25T10:40:41;99497.84;;;13.29;57.06
29371;BME280;16357;52.188;7.838;2023-03-25T10:43:37;99497.41;;;13.32;57.07
29371;BME280;16357;52.188;7.838;2023-03-25T10:48:39;99487.91;;;13.36;56.40
29371;BME280;16357;52.188;7.838;2023-03-25T10:51:18;99481.91;;;13.41;57.05
29371;BME280;16357;52.188;7.838;2023-03-25T10:53:48;99484.59;;;13.47;56.88
29371;BME280;16357;52.188;7.838;2023-03-25T10:56:40;99486.25;;;13.55;56.85
29371;BME280;16357;52.188;7.838;2023-03-25T11:02:16;99480.66;;;13.76;57.22
29371;BME280;16357;52.188;7.838;2023-03-25T11:04:44;99487.91;;;13.89;57.22
29371;BME280;16357;52.188;7.838;2023-03-25T11:07:22;99480.22;;;14.06;57.15
29371;BME280;16357;52.188;7.838;2023-03-25T11:09:51;99472.50;;;14.23;57.06
29371;BME280;16357;52.188;7.838;2023-03-25T11:12:19;99466.63;;;14.39;57.06
29371;BME280;16357;52.188;7.838;2023-03-25T11:14:58;99472.00;;;14.59;56.20
29371;BME280;16357;52.188;7.838;2023-03-25T11:17:27;99470.28;;;14.71;54.62
29371;BME280;16357;52.188;7.838;2023-03-25T11:19:57;99463.16;;;14.84;54.29
29371;BME280;16357;52.188;7.838;2023-03-25T11:22:30;99466.44;;;14.92;53.47
29371;BME280;16357;52.188;7.838;2023-03-25T11:25:06;99455.22;;;14.96;53.76
29371;BME280;16357;52.188;7.838;2023-03-25T11:27:42;99458.50;;;14.98;53.54
29371;BME280;16357;52.188;7.838;2023-03-25T11:30:18;99459.13;;;15.00;53.13
29371;BME280;16357;52.188;7.838;2023-03-25T11:33:02;99471.00;;;14.99;53.25
29371;BME280;16357;52.188;7.838;2023-03-25T11:35:31;99471.44;;;14.96;52.80
29371;BME280;16357;52.188;7.838;2023-03-25T11:38:13;99466.66;;;14.91;52.65
29371;BME280;16357;52.188;7.838;2023-03-25T11:40:53;99478.53;;;14.83;53.23
29371;BME280;16357;52.188;7.838;2023-03-25T11:43:25;99466.56;;;14.73;52.77
29371;BME280;16357;52.188;7.838;2023-03-25T11:45:53;99464.94;;;14.58;53.13
29371;BME280;16357;52.188;7.838;2023-03-25T11:48:22;99466.84;;;14.44;52.89
29371;BME280;16357;52.188;7.838;2023-03-25T11:50:55;99467.69;;;14.32;54.01
29371;BME280;16357;52.188;7.838;2023-03-25T11:53:26;99471.25;;;14.19;54.07
29371;BME280;16357;52.188;7.838;2023-03-25T11:55:55;99477.94;;;14.10;54.25
29371;BME280;16357;52.188;7.838;2023-03-25T11:58:29;99480.44;;;14.04;54.65
29371;BME280;16357;52.188;7.838;2023-03-25T12:01:06;99468.38;;;14.00;54.90
29371;BME280;16357;52.188;7.838;2023-03-25T12:03:34;99470.06;;;14.01;54.68
29371;BME280;16357;52.188;7.838;2023-03-25T12:06:20;99473.38;;;14.03;54.71
29371;BME280;16357;52.188;7.838;2023-03-25T12:09:08;99480.44;;;14.04;55.07
29371;BME280;16357;52.188;7.838;2023-03-25T12:14:56;99482.09;;;13.99;54.93
29371;BME280;16357;52.188;7.838;2023-03-25T12:23:02;99459.69;;;13.92;57.62
29371;BME280;16357;52.188;7.838;2023-03-25T12:28:27;99469.44;;;14.06;56.57
29371;BME280;16357;52.188;7.838;2023-03-25T12:31:22;99462.38;;;14.12;56.19
29371;BME280;16357;52.188;7.838;2023-03-25T12:36:42;99449.91;;;14.11;55.88
29371;BME280;16357;52.188;7.838;2023-03-25T12:39:32;99444.31;;;14.05;55.43
29371;BME280;16357;52.188;7.838;2023-03-25T12:47:37;99498.69;;;13.56;61.06
29371;BME280;16357;52.188;7.838;2023-03-25T12:50:24;99481.66;;;13.22;62.38
29371;BME280;16357;52.188;7.838;2023-03-25T13:07:17;99458.09;;;11.86;70.78
29371;BME280;16357;52.188;7.838;2023-03-25T13:12:31;99456.69;;;11.91;72.39
29371;BME280;16357;52.188;7.838;2023-03-25T13:15:28;99456.28;;;11.94;72.84
29371;BME280;16357;52.188;7.838;2023-03-25T13:18:04;99462.91;;;11.98;72.83
29371;BME280;16357;52.188;7.838;2023-03-25T13:20:38;99461.69;;;12.00;73.06
29371;BME280;16357;52.188;7.838;2023-03-25T13:23:11;99456.31;;;12.00;73.13
29371;BME280;16357;52.188;7.838;2023-03-25T13:25:59;99452.41;;;12.03;73.31
29371;BME280;16357;52.188;7.838;2023-03-25T13:28:34;99438.97;;;12.03;73.78
29371;BME280;16357;52.188;7.838;2023-03-25T13:31:05;99445.19;;;12.03;73.97
29371;BME280;16357;52.188;7.838;2023-03-25T13:36:45;99453.69;;;12.07;73.77
29371;BME280;16357;52.188;7.838;2023-03-25T13:39:23;99470.59;;;12.01;71.85
29371;BME280;16357;52.188;7.838;2023-03-25T13:41:57;99455.59;;;11.85;70.80
29371;BME280;16357;52.188;7.838;2023-03-25T13:44:31;99475.88;;;11.66;71.14
29371;BME280;16357;52.188;7.838;2023-03-25T13:49:41;99462.38;;;11.31;73.61
29371;BME280;16357;52.188;7.838;2023-03-25T13:52:08;99446.41;;;11.23;75.17
29371;BME280;16357;52.188;7.838;2023-03-25T13:54:38;99432.97;;;11.23;76.14
29371;BME280;16357;52.188;7.838;2023-03-25T13:57:27;99423.13;;;11.30;76.98
29371;BME280;16357;52.188;7.838;2023-03-25T14:08:43;99413.53;;;11.99;77.97
29371;BME280;16357;52.188;7.838;2023-03-25T14:14:23;99409.09;;;12.19;76.07
29371;BME280;16357;52.188;7.838;2023-03-25T14:16:56;99411.56;;;12.21;75.59
29371;BME280;16357;52.188;7.838;2023-03-25T14:19:30;99418.78;;;12.20;75.16
29371;BME280;16357;52.188;7.838;2023-03-25T14:21:58;99435.13;;;12.19;75.14
29371;BME280;16357;52.188;7.838;2023-03-25T14:24:34;99474.63;;;12.18;75.11
29371;BME280;16357;52.188;7.838;2023-03-25T14:27:12;99489.25;;;12.09;72.77
29371;BME280;16357;52.188;7.838;2023-03-25T14:29:45;99474.47;;;11.92;71.31
29371;BME280;16357;52.188;7.838;2023-03-25T14:34:45;99483.28;;;11.36;71.43
29371;BME280;16357;52.188;7.838;2023-03-25T14:37:24;99494.41;;;11.11;72.62
29371;BME280;16357;52.188;7.838;2023-03-25T14:43:34;99477.84;;;10.71;75.36
29371;BME280;16357;52.188;7.838;2023-03-25T14:46:12;99483.16;;;10.65;76.60
29371;BME280;16357;52.188;7.838;2023-03-25T14:54:20;99465.28;;;10.72;78.34
29371;BME280;16357;52.188;7.838;2023-03-25T14:57:04;99459.16;;;10.78;78.94
29371;BME280;16357;52.188;7.838;2023-03-25T14:59:59;99460.34;;;10.90;79.21
29371;BME280;16357;52.188;7.838;2023-03-25T15:02:35;99461.47;;;11.03;80.15
29371;BME280;16357;52.188;7.838;2023-03-25T15:05:14;99452.56;;;11.17;80.46
29371;BME280;16357;52.188;7.838;2023-03-25T15:07:48;99460.34;;;11.33;80.61
29371;BME280;16357;52.188;7.838;2023-03-25T15:10:35;99462.94;;;11.48;80.28
29371;BME280;16357;52.188;7.838;2023-03-25T15:13:26;99455.59;;;11.63;80.07
29371;BME280;16357;52.188;7.838;2023-03-25T15:15:58;99452.19;;;11.76;79.64
29371;BME280;16357;52.188;7.838;2023-03-25T15:21:22;99460.84;;;11.93;77.83
29371;BME280;16357;52.188;7.838;2023-03-25T15:23:53;99452.16;;;11.98;77.69
29371;BME280;16357;52.188;7.838;2023-03-25T15:26:41;99450.09;;;12.00;77.94
29371;BME280;16357;52.188;7.838;2023-03-25T15:35:08;99441.47;;;12.11;77.67
29371;BME280;16357;52.188;7.838;2023-03-25T15:37:53;99435.34;;;12.17;77.67
29371;BME280;16357;52.188;7.838;2023-03-25T15:40:35;99435.75;;;12.21;77.69
29371;BME280;16357;52.188;7.838;2023-03-25T15:49:48;99441.59;;;12.31;77.46